ADDS METAR Data INFO
IDs: Format: Raw Decoded Include TAF

Data at: 2221 UTC 24 Jun 2018

KITH 242215Z 30010G16KT 1/8SM R32/0500V1000FT -RA FG OVC002 17/17 A2986 RMK AO2 P0001
KITH 242156Z 30009KT 1/8SM R32/2800VP6000FT RA FG BKN002 BKN012 OVC044 18/18 A2986 RMK AO2 RAB13 SLP106 P0008 T01830178
KITH 242140Z 30009KT 2SM -RA BR BKN002 BKN055 OVC080 19/18 A2985 RMK AO2 RAB13 P0003
KITH 242136Z 30008KT 4SM RA BR SCT002 BKN055 OVC080 19/18 A2985 RMK AO2 RAB13 P0002
KITH 242056Z 30005KT 10SM FEW010 SCT030 BKN080 21/18 A2984 RMK AO2 SLP101 60001 T02060178 53002
KITH 241956Z 33003KT 10SM BKN010 22/19 A2983 RMK AO2 LTG DSNT SW SLP095 T02170194
KITH 241937Z 27006KT 8SM BKN007 BKN080 22/19 A2983 RMK AO2
KITH 241856Z 29006KT 2SM R32/6000VP6000FT BR BKN002 BKN007 OVC070 19/19 A2984 RMK AO2 RAB12E48 SLP100 P0001 T01940194
KITH 241833Z 30007KT 1 1/2SM -RA BR SCT002 BKN007 OVC070 19/18 A2984 RMK AO2 LTG DSNT SE RAB12 CIG 005V011 P0000
KITH 241756Z 01005KT 4SM BR FEW003 BKN034 19/19 A2984 RMK AO2 RAE30 SLP099 P0000 60025 T01940189 10222 20183 58002
KITH 241719Z 00000KT 3SM -RA BR SCT002 BKN009 OVC036 19/18 A2984 RMK AO2 LTG DSNT SW P0000
KITH 241656Z 31005KT 4SM -RA BR SCT005 BKN023 OVC042 19/19 A2985 RMK AO2 LTG DSNT SW RAB03 SLP103 P0022 T01940189
KITH 241556Z 00000KT 8SM BKN025 BKN060 22/18 A2983 RMK AO2 SLP096 T02220178
KITH 241456Z 00000KT 10SM SCT010 BKN049 21/18 A2984 RMK AO2 SLP101 60003 T02110178 51003
KITH 241356Z 26004KT 10SM BKN008 BKN014 OVC021 20/18 A2984 RMK AO2 RAB17E34 CIG 006V011 SLP098 P0000 T02000183
KITH 241256Z 00000KT 6SM BR OVC010 19/18 A2984 RMK AO2 RAE48 SLP100 P0003 T01890183
KITH 241156Z 21003KT 3SM R32/6000VP6000FT -RA BR OVC012 19/18 A2983 RMK AO2 RAB48 SLP097 P0000 60000 T01890178 10189 20144 51015
KITH 241056Z 00000KT 8SM OVC017 18/17 A2982 RMK AO2 SLP093 T01780172
KITH 241030Z 00000KT 9SM OVC016 18/17 A2982 RMK AO2
KITH 241009Z AUTO 00000KT 7SM BKN018 BKN027 OVC050 17/17 A2981 RMK AO2
KITH 240956Z AUTO 00000KT 6SM BR FEW027 BKN050 17/16 A2981 RMK AO2 SLP090 T01670161
KITH 240856Z AUTO 00000KT 8SM OVC050 16/16 A2979 RMK AO2 SLP082 T01610156 58002
KITH 240756Z AUTO 00000KT 7SM CLR 14/14 A2980 RMK AO2 SLP086 T01440144
KITH 240656Z AUTO 18004KT 10SM SCT041 17/17 A2980 RMK AO2 SLP085 T01720167
KITH 240556Z AUTO 16005KT 10SM CLR 17/16 A2979 RMK AO2 SLP084 T01720161 10211 20172 50000
KITH 240456Z AUTO 18006KT 10SM BKN047 18/17 A2979 RMK AO2 SLP084 T01830172
KITH 240356Z AUTO 18007KT 10SM CLR 18/17 A2980 RMK AO2 SLP086 T01830167 402280156
KITH 240256Z AUTO 16004KT 10SM CLR 18/17 A2979 RMK AO2 SLP085 T01780167 51010
KITH 240156Z 17007KT 10SM CLR 19/17 A2979 RMK AO2 SLP084 T01890172
KITH 240056Z 19009KT 10SM SCT026 21/17 A2978 RMK AO2 SLP079 T02060167
KITH 232356Z 18010KT 10SM SCT030 21/17 A2976 RMK AO2 SLP073 T02110172 10228 20189 55006
KITH 232256Z 17007KT 10SM SCT022 22/18 A2976 RMK AO2 SLP071 T02220178
KITH 232156Z 14006KT 10SM SCT037 BKN090 21/18 A2977 RMK AO2 SLP075 T02110178
KITH 232056Z 13005KT 10SM BKN022 OVC070 21/17 A2978 RMK AO2 SLP080 T02110172 56008
KITH 231956Z 12006KT 10SM OVC017 20/17 A2979 RMK AO2 SLP083 T02000167
KITH 231856Z 14007KT 10SM OVC014 19/16 A2979 RMK AO2 SLP085 T01940161
KITH 231756Z 15008KT 10SM OVC014 19/16 A2981 RMK AO2 SLP089 60000 T01940161 10194 20156 58016
KITH 231656Z 15007KT 10SM OVC014 18/15 A2983 RMK AO2 SLP097 T01830150
KITH 231556Z 15010KT 10SM OVC014 18/14 A2985 RMK AO2 SLP103 T01780144
KITH 231456Z 13008KT 10SM OVC010 17/14 A2985 RMK AO2 SLP106 60000 T01670139 56004
KITH 231356Z 12010G14KT 10SM BKN010 16/14 A2986 RMK AO2 RAE27 SLP107 P0000 T01610139
KITH 231338Z 12009KT 10SM BKN014 OVC035 16/14 A2986 RMK AO2 RAE27 P0000
KITH 231331Z 13011G16KT 1SM R32/P6000FT BR BKN014 OVC035 16/14 A2986 RMK AO2 RAE27 P0000
KITH 231256Z 13007KT 10SM -RA BKN014 OVC035 17/14 A2986 RMK AO2 RAB48 SLP107 P0000 T01670144
KITH 231156Z 12007KT 10SM BKN012 16/15 A2987 RMK AO2 RAE45 SLP109 P0001 60002 70006 T01610150 10172 20156 56007
KITH 231056Z 13005KT 10SM -RA SCT025 BKN034 16/14 A2987 RMK AO2 RAB13 SLP110 P0001 T01610144
KITH 231030Z 12006KT 10SM -RA SCT046 OVC080 16/14 A2987 RMK AO2 RAB13 P0000